createdAt,value
2023-04-01T00:00:00.395Z,6.25
2023-04-01T00:02:31.511Z,6.17
2023-04-01T00:05:01.298Z,6.20
2023-04-01T00:07:30.636Z,6.19
2023-04-01T00:09:58.012Z,6.13
2023-04-01T00:12:29.192Z,6.13
2023-04-01T00:14:56.127Z,6.10
2023-04-01T00:17:23.687Z,6.04
2023-04-01T00:19:53.114Z,5.95
2023-04-01T00:22:23.072Z,5.97
2023-04-01T00:24:50.020Z,5.89
2023-04-01T00:27:17.384Z,5.89
2023-04-01T00:29:50.932Z,5.88
2023-04-01T00:32:19.824Z,5.78
2023-04-01T00:34:55.265Z,5.76
2023-04-01T00:37:47.146Z,5.73
2023-04-01T00:40:47.875Z,5.69
2023-04-01T00:43:21.404Z,5.67
2023-04-01T00:45:58.402Z,5.58
2023-04-01T00:48:36.933Z,5.57
2023-04-01T00:51:23.490Z,5.54
2023-04-01T00:54:10.611Z,5.44
2023-04-01T00:56:50.980Z,5.46
2023-04-01T00:59:29.446Z,5.46
2023-04-01T01:02:03.777Z,5.39
2023-04-01T01:04:50.670Z,5.39
2023-04-01T01:07:35.509Z,5.34
2023-04-01T01:10:30.971Z,5.25
2023-04-01T01:13:12.552Z,5.25
2023-04-01T01:16:24.082Z,5.17
2023-04-01T01:19:06.129Z,5.22
2023-04-01T01:22:32.954Z,5.21
2023-04-01T01:26:00.795Z,5.18
2023-04-01T01:29:07.200Z,5.17
2023-04-01T01:32:35.062Z,5.08
2023-04-01T01:35:26.716Z,5.01
2023-04-01T01:38:13.012Z,4.97
2023-04-01T01:40:57.673Z,4.97
2023-04-01T01:43:36.942Z,4.97
2023-04-01T01:46:17.213Z,4.90
2023-04-01T01:48:56.531Z,4.93
2023-04-01T01:51:27.366Z,4.86
2023-04-01T01:54:03.448Z,4.81
2023-04-01T01:56:35.327Z,4.73
2023-04-01T01:59:18.934Z,4.72
2023-04-01T02:02:00.621Z,4.70
2023-04-01T02:05:03.829Z,4.66
2023-04-01T02:07:41.000Z,4.66
2023-04-01T02:10:08.797Z,4.59
2023-04-01T02:12:51.268Z,4.63
2023-04-01T02:15:37.752Z,4.54
2023-04-01T02:18:06.110Z,4.54
2023-04-01T02:20:34.023Z,4.51
2023-04-01T02:23:01.284Z,4.46
2023-04-01T02:25:38.683Z,4.44
2023-04-01T02:28:12.383Z,4.38
2023-04-01T02:30:52.444Z,4.34
2023-04-01T02:33:36.229Z,4.28
2023-04-01T02:36:25.336Z,4.25
2023-04-01T02:38:55.711Z,4.25
2023-04-01T02:41:23.726Z,4.26
2023-04-01T02:43:53.505Z,4.23
2023-04-01T02:46:27.967Z,4.23
2023-04-01T02:49:05.674Z,4.18
2023-04-01T02:51:33.939Z,4.16
2023-04-01T02:54:06.977Z,4.21
2023-04-01T02:56:49.209Z,4.13
2023-04-01T02:59:18.778Z,4.18
2023-04-01T03:02:02.001Z,4.12
2023-04-01T03:04:28.924Z,4.11
2023-04-01T03:06:58.295Z,4.10
2023-04-01T03:09:31.213Z,4.08
2023-04-01T03:12:07.476Z,4.10
2023-04-01T03:14:34.392Z,4.06
2023-04-01T03:17:01.743Z,4.07
2023-04-01T03:19:31.272Z,4.06
2023-04-01T03:21:58.482Z,4.03
2023-04-01T03:24:25.262Z,4.01
2023-04-01T03:26:51.929Z,4.01
2023-04-01T03:29:21.831Z,3.95
2023-04-01T03:31:55.877Z,3.98
2023-04-01T03:34:22.628Z,3.93
2023-04-01T03:36:55.654Z,3.87
2023-04-01T03:39:23.056Z,3.83
2023-04-01T03:41:50.644Z,3.91
2023-04-01T03:44:20.271Z,3.84
2023-04-01T03:46:55.929Z,3.82
2023-04-01T03:49:22.640Z,3.83
2023-04-01T03:51:52.482Z,3.79
2023-04-01T03:54:23.679Z,3.79
2023-04-01T03:56:50.946Z,3.77
2023-04-01T03:59:20.903Z,3.77
2023-04-01T04:01:53.717Z,3.74
2023-04-01T04:04:23.151Z,3.73
2023-04-01T04:06:50.072Z,3.77
2023-04-01T04:09:18.844Z,3.77
2023-04-01T04:12:12.282Z,3.71
2023-04-01T04:14:53.252Z,3.72
2023-04-01T04:17:23.247Z,3.74
2023-04-01T04:19:54.923Z,3.73
2023-04-01T04:22:21.683Z,3.76
2023-04-01T04:24:59.508Z,3.75
2023-04-01T04:27:26.441Z,3.77
2023-04-01T04:29:53.148Z,3.77
2023-04-01T04:32:22.851Z,3.77
2023-04-01T04:34:59.095Z,3.77
2023-04-01T04:37:36.597Z,3.73
2023-04-01T04:40:03.897Z,3.72
2023-04-01T04:42:33.642Z,3.72
2023-04-01T04:45:00.524Z,3.73
2023-04-01T04:47:27.254Z,3.75
2023-04-01T04:49:53.922Z,3.72
2023-04-01T04:52:27.454Z,3.74
2023-04-01T04:55:02.801Z,3.67
2023-04-01T04:57:31.618Z,3.68
2023-04-01T05:00:01.505Z,3.68
2023-04-01T05:02:28.203Z,3.67
2023-04-01T05:04:55.558Z,3.65
2023-04-01T05:07:24.720Z,3.71
2023-04-01T05:09:54.345Z,3.66
2023-04-01T05:12:22.957Z,3.69
2023-04-01T05:14:52.753Z,3.67
2023-04-01T05:17:28.837Z,3.60
2023-04-01T05:19:55.670Z,3.62
2023-04-01T05:22:29.626Z,3.62
2023-04-01T05:25:14.645Z,3.65
2023-04-01T05:27:46.573Z,3.63
2023-04-01T05:30:13.721Z,3.67
2023-04-01T05:33:03.200Z,3.62
2023-04-01T05:35:30.354Z,3.65
2023-04-01T05:38:00.316Z,3.64
2023-04-01T05:40:30.180Z,3.60
2023-04-01T05:42:57.794Z,3.60
2023-04-01T05:46:05.510Z,3.67
2023-04-01T05:48:36.061Z,3.69
2023-04-01T05:51:06.184Z,3.66
2023-04-01T05:53:36.296Z,3.69
2023-04-01T05:56:10.314Z,3.72
2023-04-01T05:58:58.483Z,3.73
2023-04-01T06:01:32.209Z,3.70
2023-04-01T06:04:20.843Z,3.66
2023-04-01T06:06:47.684Z,3.67
2023-04-01T06:09:57.112Z,3.70
2023-04-01T06:13:06.157Z,3.72
2023-04-01T06:16:12.089Z,3.75
2023-04-01T06:20:01.629Z,3.79
2023-04-01T06:23:18.207Z,3.80
2023-04-01T06:26:12.909Z,3.81
2023-04-01T06:29:23.320Z,3.84
2023-04-01T06:33:32.658Z,3.82
2023-04-01T06:40:05.117Z,3.83
2023-04-01T06:42:57.300Z,3.84
2023-04-01T06:46:02.160Z,3.87
2023-04-01T06:49:58.950Z,3.85
2023-04-01T06:53:05.757Z,3.80
2023-04-01T06:56:13.611Z,3.82
2023-04-01T06:59:13.309Z,3.88
2023-04-01T07:02:22.716Z,3.92
2023-04-01T07:04:59.453Z,3.88
2023-04-01T07:07:56.276Z,3.83
2023-04-01T07:11:06.973Z,3.84
2023-04-01T07:14:16.158Z,3.77
2023-04-01T07:17:31.411Z,3.80
2023-04-01T07:21:04.822Z,3.79
2023-04-01T07:24:03.022Z,3.80
2023-04-01T07:26:32.541Z,3.77
2023-04-01T07:29:02.383Z,3.79
2023-04-01T07:32:10.812Z,3.79
2023-04-01T07:34:58.251Z,3.82
2023-04-01T09:15:32.178Z,3.40
2023-04-01T10:01:32.022Z,2.89
2023-04-01T10:08:42.061Z,2.94
2023-04-01T10:12:17.548Z,2.92
2023-04-01T14:41:57.961Z,2.94
2023-04-01T15:02:29.866Z,2.67
2023-04-01T16:07:23.283Z,2.61
2023-04-01T16:10:43.273Z,2.68
2023-04-01T16:17:37.690Z,2.74
2023-04-01T16:24:08.628Z,2.78
2023-04-01T16:50:39.025Z,2.39
2023-04-01T16:53:15.850Z,2.63
2023-04-01T17:02:01.302Z,3.07
2023-04-01T17:18:51.429Z,2.78
2023-04-01T17:22:18.215Z,2.70
2023-04-01T17:25:47.376Z,2.65
2023-04-01T17:29:24.963Z,2.57
2023-04-01T17:32:49.909Z,2.50
2023-04-01T18:00:04.387Z,1.95
2023-04-01T18:03:22.232Z,1.94
2023-04-01T18:56:23.262Z,1.45
2023-04-01T18:59:21.556Z,1.49
2023-04-01T19:02:46.506Z,1.56
2023-04-01T19:06:09.003Z,1.59
2023-04-01T20:24:57.128Z,1.36
2023-04-01T20:55:48.618Z,1.45
2023-04-01T20:58:38.693Z,1.39
2023-04-01T21:02:05.538Z,1.37
2023-04-01T21:12:13.424Z,1.35
2023-04-01T21:15:58.977Z,1.47
2023-04-01T21:19:07.351Z,1.36
2023-04-01T21:43:24.144Z,1.21
2023-04-01T21:46:37.587Z,1.13
2023-04-01T21:49:59.000Z,1.23
2023-04-01T21:53:16.171Z,1.16
2023-04-01T21:56:02.968Z,1.46
2023-04-01T21:59:26.008Z,1.54
2023-04-01T22:02:44.648Z,1.47
2023-04-01T22:12:58.262Z,1.41
2023-04-01T23:22:19.961Z,1.67
2023-04-01T23:25:05.883Z,1.62
2023-04-01T23:28:25.307Z,1.65
2023-04-01T23:30:53.797Z,1.54
2023-04-01T23:33:32.598Z,1.70
2023-04-01T23:36:18.509Z,1.74
2023-04-01T23:38:50.897Z,1.82
2023-04-01T23:41:37.488Z,1.80
2023-04-01T23:44:17.425Z,1.63
2023-04-01T23:46:50.921Z,1.70
2023-04-01T23:49:50.193Z,1.74
2023-04-01T23:52:49.038Z,1.74
2023-04-01T23:55:29.146Z,1.73
2023-04-01T23:58:16.404Z,1.74
